LIPB Airport Information

Runway Information
Runway 01 Length 4255 ft width 98 ft
Elevation 771 ft Threshold 0 ft Heading 10
Runway 19 Length 4255 ft Width 98 ft
Elevation 788 ft Threshold 200 ft Heading 190
Runway 01R Length 2290 ft width 66 ft
Elevation 773 ft Threshold 0 ft Heading 11
Runway 19L Length 2290 ft Width 66 ft
Elevation 782 ft Threshold 0 ft Heading 191
Airport Frequencies
Type AFIS Name INFO Frequency 120.6 MHZ
Airport Navaids
Type NDB Name Bolzano Frequency 362 KHZ
Type VOR-DME Name Bolzano Frequency 117050 KHZ
Airport Weather Information & NOTAM
ADDS - METARS form results

(0616 UTC 19 August 2018)
 
METAR text: LIPB 190550Z 16002KT 9999 FEW030 17/17 Q1022
Conditions at: LIPB (BOLZANO(CIV/IT-A, IT) observed 0550 UTC 19 August 2018
Temperature: 17.0°C (63°F)
Dewpoint: 17.0°C (63°F) [RH = 100%]
Pressure (altimeter): 30.18 inches Hg (1022.0 mb)
Winds: from the SSE (160 degrees) at 2 MPH (2 knots; 1.0 m/s)
Visibility: 6 or more miles (10+ km)
Ceiling: at least 12,000 feet AGL
Clouds: few clouds at 3000 feet AGL
Weather: no significant weather observed at this time